createdAt,value
2022-12-09T00:00:33.520Z,6.09
2022-12-09T00:01:41.052Z,6.09
2022-12-09T00:02:44.828Z,6.08
2022-12-09T00:03:49.042Z,6.06
2022-12-09T00:04:54.921Z,6.06
2022-12-09T00:05:59.938Z,6.07
2022-12-09T00:07:10.337Z,6.10
2022-12-09T00:08:16.429Z,6.10
2022-12-09T00:09:20.750Z,6.12
2022-12-09T00:10:24.563Z,6.13
2022-12-09T00:11:28.480Z,6.12
2022-12-09T00:12:32.068Z,6.10
2022-12-09T00:13:36.487Z,6.13
2022-12-09T00:14:40.185Z,6.13
2022-12-09T00:15:44.016Z,6.13
2022-12-09T00:16:47.836Z,6.14
2022-12-09T00:17:52.340Z,6.14
2022-12-09T00:18:57.648Z,6.14
2022-12-09T00:20:01.598Z,6.15
2022-12-09T00:21:29.713Z,6.15
2022-12-09T00:22:36.403Z,6.16
2022-12-09T00:23:42.392Z,6.16
2022-12-09T00:24:53.133Z,6.17
2022-12-09T00:26:13.514Z,6.18
2022-12-09T00:27:21.455Z,6.17
2022-12-09T00:28:26.572Z,6.15
2022-12-09T00:29:35.565Z,6.17
2022-12-09T00:30:42.440Z,6.17
2022-12-09T00:31:46.154Z,6.19
2022-12-09T00:32:50.037Z,6.18
2022-12-09T00:34:07.302Z,6.19
2022-12-09T00:35:21.473Z,6.17
2022-12-09T00:36:31.691Z,6.18
2022-12-09T00:37:36.441Z,6.18
2022-12-09T00:38:56.347Z,6.18
2022-12-09T00:40:00.507Z,6.17
2022-12-09T00:41:29.448Z,6.17
2022-12-09T00:42:42.269Z,6.17
2022-12-09T00:44:03.227Z,6.18
2022-12-09T00:45:16.126Z,6.16
2022-12-09T00:46:26.063Z,6.15
2022-12-09T00:48:58.302Z,6.13
2022-12-09T00:50:09.132Z,6.10
2022-12-09T00:51:29.616Z,6.09
2022-12-09T00:52:33.596Z,6.06
2022-12-09T00:53:41.179Z,6.04
2022-12-09T00:54:51.781Z,6.07
2022-12-09T00:56:02.279Z,6.07
2022-12-09T00:57:15.358Z,6.06
2022-12-09T00:58:31.339Z,6.07
2022-12-09T00:59:47.789Z,6.06
2022-12-09T01:00:58.499Z,6.08
2022-12-09T01:02:15.841Z,6.10
2022-12-09T01:03:24.187Z,6.10
2022-12-09T01:04:28.061Z,6.10
2022-12-09T01:05:36.849Z,6.10
2022-12-09T01:06:53.388Z,6.12
2022-12-09T01:07:57.443Z,6.11
2022-12-09T01:09:14.008Z,6.10
2022-12-09T01:10:52.182Z,6.10
2022-12-09T01:12:13.208Z,5.98
2022-12-09T01:13:19.500Z,6.00
2022-12-09T01:14:27.891Z,6.04
2022-12-09T01:15:41.033Z,5.99
2022-12-09T01:16:45.744Z,6.00
2022-12-09T01:17:56.131Z,6.03
2022-12-09T01:19:05.127Z,6.05
2022-12-09T01:20:15.096Z,5.97
2022-12-09T01:21:20.337Z,6.03
2022-12-09T01:22:26.947Z,6.02
2022-12-09T01:23:36.548Z,6.03
2022-12-09T01:24:41.630Z,6.06
2022-12-09T01:25:52.829Z,6.08
2022-12-09T01:26:56.388Z,6.01
2022-12-09T01:28:00.980Z,6.03
2022-12-09T01:29:18.126Z,6.04
2022-12-09T01:30:30.205Z,6.04
2022-12-09T01:31:39.974Z,6.04
2022-12-09T01:32:55.520Z,5.98
2022-12-09T01:33:59.392Z,6.02
2022-12-09T01:35:08.105Z,6.03
2022-12-09T01:36:29.066Z,6.04
2022-12-09T01:37:35.252Z,6.06
2022-12-09T01:38:57.637Z,6.02
2022-12-09T01:40:20.287Z,6.02
2022-12-09T01:41:26.358Z,5.97
2022-12-09T01:42:34.645Z,5.96
2022-12-09T01:43:42.219Z,5.96
2022-12-09T01:45:32.805Z,6.00
2022-12-09T01:46:46.941Z,6.00
2022-12-09T01:48:16.708Z,5.99
2022-12-09T01:49:57.207Z,5.95
2022-12-09T01:51:16.965Z,5.99
2022-12-09T01:52:27.451Z,5.97
2022-12-09T01:53:41.639Z,5.97
2022-12-09T01:54:54.709Z,5.96
2022-12-09T01:56:11.418Z,5.95
2022-12-09T01:57:18.755Z,5.98
2022-12-09T01:58:29.770Z,5.99
2022-12-09T01:59:36.846Z,5.98
2022-12-09T02:00:46.977Z,5.95
2022-12-09T02:02:00.244Z,5.95
2022-12-09T02:03:17.299Z,5.93
2022-12-09T02:04:28.234Z,5.93
2022-12-09T02:05:32.436Z,5.95
2022-12-09T02:06:41.027Z,5.91
2022-12-09T02:07:44.676Z,5.90
2022-12-09T02:08:51.466Z,5.89
2022-12-09T02:09:55.112Z,5.90
2022-12-09T02:11:06.907Z,5.87
2022-12-09T02:12:24.418Z,5.87
2022-12-09T02:13:37.567Z,5.87
2022-12-09T02:15:18.628Z,5.89
2022-12-09T02:16:30.742Z,5.90
2022-12-09T02:17:56.050Z,5.92
2022-12-09T02:20:02.025Z,5.95
2022-12-09T02:21:49.825Z,5.94
2022-12-09T02:23:44.720Z,5.90
2022-12-09T02:25:43.892Z,5.92
2022-12-09T02:27:20.826Z,5.90
2022-12-09T02:28:40.411Z,5.90
2022-12-09T02:30:19.509Z,5.91
2022-12-09T02:32:06.131Z,5.92
2022-12-09T02:33:36.721Z,5.93
2022-12-09T02:35:04.238Z,5.93
2022-12-09T02:36:26.776Z,5.96
2022-12-09T02:37:59.545Z,5.95
2022-12-09T02:39:04.026Z,5.97
2022-12-09T02:40:46.636Z,5.97
2022-12-09T02:42:07.076Z,5.97
2022-12-09T02:43:13.783Z,5.97
2022-12-09T02:44:23.681Z,5.96
2022-12-09T02:45:31.707Z,5.96
2022-12-09T02:46:36.980Z,5.97
2022-12-09T02:47:48.889Z,5.97
2022-12-09T02:48:57.922Z,5.97
2022-12-09T02:50:14.306Z,5.98
2022-12-09T02:51:22.607Z,5.91
2022-12-09T02:52:28.393Z,5.90
2022-12-09T02:53:37.580Z,5.94
2022-12-09T02:54:43.910Z,5.95
2022-12-09T02:55:50.481Z,5.95
2022-12-09T02:57:03.988Z,5.96
2022-12-09T02:58:07.954Z,5.96
2022-12-09T02:59:35.622Z,5.97
2022-12-09T03:00:49.295Z,5.96
2022-12-09T03:02:49.724Z,5.97
2022-12-09T03:03:55.882Z,5.95
2022-12-09T03:05:53.556Z,5.95
2022-12-09T03:07:31.746Z,5.95
2022-12-09T03:09:02.622Z,5.93
2022-12-09T03:10:23.010Z,5.92
2022-12-09T03:11:33.599Z,5.89
2022-12-09T03:12:44.023Z,5.92
2022-12-09T03:14:12.583Z,5.91
2022-12-09T03:15:30.215Z,5.88
2022-12-09T03:16:55.297Z,5.89
2022-12-09T03:20:01.045Z,5.85
2022-12-09T03:21:09.736Z,5.84
2022-12-09T03:22:27.940Z,5.86
2022-12-09T03:23:43.851Z,5.86
2022-12-09T03:25:20.762Z,5.86
2022-12-09T03:26:33.330Z,5.85
2022-12-09T03:28:21.321Z,5.84
2022-12-09T03:29:32.219Z,5.82
2022-12-09T03:30:45.479Z,5.82
2022-12-09T03:32:09.295Z,5.81
2022-12-09T03:33:29.847Z,5.81
2022-12-09T03:34:48.078Z,5.83
2022-12-09T03:35:58.327Z,5.84
2022-12-09T03:38:32.765Z,5.79
2022-12-09T03:39:19.967Z,5.81
2022-12-09T03:40:43.459Z,5.80
2022-12-09T03:41:57.303Z,5.81
2022-12-09T03:43:37.805Z,5.81
2022-12-09T03:45:08.289Z,5.80
2022-12-09T03:46:33.060Z,5.78
2022-12-09T03:47:53.035Z,5.74
2022-12-09T03:49:16.687Z,5.76
2022-12-09T03:50:34.966Z,5.76
2022-12-09T03:52:08.709Z,5.75
2022-12-09T03:53:22.682Z,5.72
2022-12-09T03:54:40.893Z,5.72
2022-12-09T03:56:48.118Z,5.70
2022-12-09T03:58:09.131Z,5.68
2022-12-09T03:59:29.500Z,5.68
2022-12-09T04:00:40.000Z,5.69
2022-12-09T04:01:58.266Z,5.69
2022-12-09T04:03:08.881Z,5.70
2022-12-09T04:04:17.913Z,5.70
2022-12-09T04:05:24.480Z,5.70
2022-12-09T04:06:29.385Z,5.71
2022-12-09T04:07:32.925Z,5.70
2022-12-09T04:08:37.192Z,5.71
2022-12-09T04:09:42.575Z,5.71
2022-12-09T04:10:47.022Z,5.72
2022-12-09T04:11:50.916Z,5.71
2022-12-09T04:12:54.603Z,5.70
2022-12-09T04:14:02.566Z,5.69
2022-12-09T04:15:07.787Z,5.68
2022-12-09T04:16:11.787Z,5.69
2022-12-09T04:17:15.468Z,5.70
2022-12-09T04:18:19.052Z,5.67
2022-12-09T04:19:22.551Z,5.68
2022-12-09T04:20:26.377Z,5.67
2022-12-09T04:21:30.093Z,5.67
2022-12-09T04:22:33.593Z,5.66
2022-12-09T04:23:42.509Z,5.66
2022-12-09T04:24:46.789Z,5.64
2022-12-09T04:25:50.491Z,5.63
2022-12-09T04:27:00.176Z,5.63
2022-12-09T04:28:04.200Z,5.61
2022-12-09T04:29:19.912Z,5.59
2022-12-09T04:30:23.543Z,5.59
2022-12-09T04:31:27.504Z,5.57
2022-12-09T04:32:32.047Z,5.58
2022-12-09T04:33:35.744Z,5.58
2022-12-09T04:34:39.464Z,5.58
2022-12-09T04:35:43.096Z,5.57
2022-12-09T04:36:46.512Z,5.55
2022-12-09T04:37:50.403Z,5.58
2022-12-09T04:38:57.145Z,5.57
2022-12-09T04:40:00.648Z,5.58
2022-12-09T04:41:05.684Z,5.57
2022-12-09T04:42:10.422Z,5.56
2022-12-09T04:43:14.619Z,5.53
2022-12-09T04:44:18.335Z,5.53
2022-12-09T04:45:22.121Z,5.52
2022-12-09T04:46:26.770Z,5.52
2022-12-09T04:47:30.385Z,5.51
2022-12-09T04:48:34.267Z,5.49
2022-12-09T04:49:38.227Z,5.49
2022-12-09T04:50:45.418Z,5.48
2022-12-09T04:51:52.642Z,5.48
2022-12-09T04:52:59.071Z,5.46
2022-12-09T04:54:03.101Z,5.47
2022-12-09T04:55:07.835Z,5.46
2022-12-09T04:56:19.065Z,5.42
2022-12-09T04:57:23.699Z,5.42
2022-12-09T04:58:28.429Z,5.41
2022-12-09T04:59:32.453Z,5.40
2022-12-09T05:00:36.177Z,5.42
2022-12-09T05:01:40.159Z,5.43
2022-12-09T05:02:44.781Z,5.43
2022-12-09T05:03:51.947Z,5.42
2022-12-09T05:04:56.315Z,5.42
2022-12-09T05:06:02.745Z,5.41
2022-12-09T05:07:06.916Z,5.41
2022-12-09T05:08:10.923Z,5.40
2022-12-09T05:09:15.277Z,5.41
2022-12-09T05:10:19.607Z,5.40
2022-12-09T05:11:24.973Z,5.40
2022-12-09T05:12:28.715Z,5.38
2022-12-09T05:13:34.325Z,5.38
2022-12-09T05:14:38.412Z,5.37
2022-12-09T05:15:42.403Z,5.36
2022-12-09T05:16:46.856Z,5.35
2022-12-09T05:17:50.629Z,5.34
2022-12-09T05:18:54.700Z,5.34
2022-12-09T05:19:58.618Z,5.31
2022-12-09T05:21:11.988Z,5.29
2022-12-09T05:22:19.516Z,5.27
2022-12-09T05:23:23.797Z,5.27
2022-12-09T05:24:27.843Z,5.24
2022-12-09T05:25:34.010Z,5.21
2022-12-09T05:26:40.048Z,5.20
2022-12-09T05:27:44.067Z,5.20
2022-12-09T05:28:48.272Z,5.19
2022-12-09T05:29:52.562Z,5.16
2022-12-09T05:31:04.871Z,5.14
2022-12-09T05:32:10.777Z,5.14
2022-12-09T05:33:15.887Z,5.11
2022-12-09T05:34:19.855Z,5.11
2022-12-09T05:35:23.748Z,5.10
2022-12-09T05:36:27.816Z,5.08
2022-12-09T05:37:32.296Z,5.04
2022-12-09T05:38:36.486Z,5.04
2022-12-09T05:39:40.277Z,5.02
2022-12-09T05:40:43.823Z,5.01
2022-12-09T05:41:47.951Z,4.98
2022-12-09T05:42:51.834Z,4.97
2022-12-09T05:43:56.633Z,4.94
2022-12-09T05:45:01.199Z,4.91
2022-12-09T05:46:06.815Z,4.89
2022-12-09T05:47:11.369Z,4.89
2022-12-09T05:48:18.714Z,4.84
2022-12-09T05:49:36.393Z,4.84
2022-12-09T05:50:41.159Z,4.82
2022-12-09T05:51:59.799Z,4.79
2022-12-09T05:53:14.609Z,4.78
2022-12-09T05:54:20.938Z,4.74
2022-12-09T05:55:25.014Z,4.72
2022-12-09T05:56:29.191Z,4.69
2022-12-09T05:57:35.306Z,4.66
2022-12-09T05:58:39.235Z,4.65
2022-12-09T05:59:43.147Z,4.62
2022-12-09T06:00:47.782Z,4.59
2022-12-09T06:01:51.689Z,4.57
2022-12-09T06:02:55.258Z,4.56
2022-12-09T06:03:59.001Z,4.53
2022-12-09T06:05:03.415Z,4.52
2022-12-09T06:06:31.487Z,4.51
2022-12-09T06:07:36.631Z,4.49
2022-12-09T06:08:42.749Z,4.46
2022-12-09T06:09:47.312Z,4.43
2022-12-09T06:10:51.581Z,4.41
2022-12-09T06:11:55.274Z,4.38
2022-12-09T06:12:58.935Z,4.31
2022-12-09T06:14:02.838Z,4.30
2022-12-09T06:15:10.454Z,4.28
2022-12-09T06:16:19.921Z,4.20
2022-12-09T06:17:24.184Z,4.23
2022-12-09T06:18:27.774Z,4.23
2022-12-09T06:19:31.854Z,4.25
2022-12-09T06:20:38.905Z,4.23
2022-12-09T06:21:43.098Z,4.23
2022-12-09T06:22:46.909Z,4.20
2022-12-09T06:23:51.654Z,4.18
2022-12-09T06:24:57.343Z,4.19
2022-12-09T06:26:00.896Z,4.17
2022-12-09T06:27:05.243Z,4.18
2022-12-09T06:28:09.346Z,4.19
2022-12-09T06:29:13.474Z,4.17
2022-12-09T06:30:17.397Z,4.17
2022-12-09T06:31:21.358Z,4.16
2022-12-09T06:32:26.055Z,4.15
2022-12-09T06:33:53.639Z,4.15
2022-12-09T06:34:53.755Z,4.11
2022-12-09T06:36:02.827Z,4.09
2022-12-09T06:37:06.410Z,4.07
2022-12-09T06:38:10.327Z,4.05
2022-12-09T06:39:14.381Z,4.06
2022-12-09T06:40:18.089Z,4.05
2022-12-09T06:41:21.950Z,4.04
2022-12-09T06:42:25.918Z,4.03
2022-12-09T06:43:30.108Z,4.02
2022-12-09T06:44:34.352Z,4.02
2022-12-09T06:45:38.919Z,4.00
2022-12-09T06:46:42.912Z,3.99
2022-12-09T06:47:48.305Z,3.99
2022-12-09T06:48:53.880Z,3.99
2022-12-09T06:50:06.533Z,3.97
2022-12-09T06:51:11.987Z,3.96
2022-12-09T06:52:15.960Z,3.96
2022-12-09T06:53:19.481Z,3.96
2022-12-09T06:54:23.705Z,3.94
2022-12-09T06:55:30.035Z,3.93
2022-12-09T06:56:34.020Z,3.92
2022-12-09T06:57:37.630Z,3.88
2022-12-09T06:58:45.079Z,3.90
2022-12-09T06:59:49.549Z,3.92
2022-12-09T07:00:53.275Z,3.90
2022-12-09T07:01:58.854Z,3.88
2022-12-09T07:03:02.844Z,3.89
2022-12-09T07:04:08.472Z,3.87
2022-12-09T07:05:13.021Z,3.88
2022-12-09T07:06:42.777Z,3.87
2022-12-09T07:07:54.611Z,3.87
2022-12-09T07:09:08.141Z,3.85
2022-12-09T07:10:12.204Z,3.87
2022-12-09T07:11:16.139Z,3.89
2022-12-09T07:12:20.738Z,3.88
2022-12-09T07:13:25.323Z,3.90
2022-12-09T07:14:28.892Z,3.92
2022-12-09T07:15:32.751Z,3.93
2022-12-09T07:16:37.477Z,3.94
2022-12-09T07:17:41.430Z,3.95
2022-12-09T07:18:45.479Z,3.96
2022-12-09T07:19:51.414Z,3.96
2022-12-09T07:20:55.220Z,3.95
2022-12-09T07:21:59.816Z,3.94
2022-12-09T07:23:03.581Z,3.92
2022-12-09T07:24:12.656Z,3.87
2022-12-09T07:25:16.320Z,3.89
2022-12-09T07:26:21.374Z,3.84
2022-12-09T07:27:25.108Z,3.87
2022-12-09T07:28:29.898Z,3.91
2022-12-09T07:29:35.399Z,3.96
2022-12-09T07:30:39.107Z,3.98
2022-12-09T07:31:43.240Z,3.99
2022-12-09T07:32:47.311Z,4.00
2022-12-09T07:33:53.553Z,4.00
2022-12-09T07:34:57.897Z,4.03
2022-12-09T07:36:01.749Z,4.04
2022-12-09T07:37:07.289Z,4.03
2022-12-09T07:38:10.952Z,4.04
2022-12-09T07:39:18.703Z,4.02
2022-12-09T07:40:22.252Z,4.03
2022-12-09T07:41:27.403Z,4.05
2022-12-09T07:42:31.296Z,4.06
2022-12-09T07:43:39.210Z,4.05
2022-12-09T07:44:43.068Z,4.08
2022-12-09T07:45:46.638Z,4.06
2022-12-09T07:46:52.158Z,4.09
2022-12-09T07:47:56.400Z,4.11
2022-12-09T07:49:04.837Z,4.12
2022-12-09T07:50:09.211Z,4.12
2022-12-09T07:51:12.827Z,4.12
2022-12-09T07:52:16.458Z,4.12
2022-12-09T07:53:19.989Z,4.12
2022-12-09T07:54:23.897Z,4.14
2022-12-09T07:55:28.199Z,4.13
2022-12-09T07:56:32.200Z,4.17
2022-12-09T07:57:38.445Z,4.18
2022-12-09T07:58:44.757Z,4.20
2022-12-09T07:59:48.785Z,4.21
2022-12-09T08:00:52.676Z,4.23
2022-12-09T08:02:01.092Z,4.25
2022-12-09T08:03:08.127Z,4.27
2022-12-09T08:04:13.157Z,4.28
2022-12-09T08:05:17.712Z,4.30
2022-12-09T08:06:26.164Z,4.32
2022-12-09T08:07:31.069Z,4.32
2022-12-09T08:08:35.685Z,4.35
2022-12-09T08:09:39.583Z,4.35
2022-12-09T08:10:44.682Z,4.38
2022-12-09T08:11:48.624Z,4.39
2022-12-09T08:12:52.453Z,4.40
2022-12-09T08:14:08.856Z,4.42
2022-12-09T08:15:17.052Z,4.45
2022-12-09T08:16:23.747Z,4.47
2022-12-09T08:17:29.794Z,4.49
2022-12-09T08:18:42.924Z,4.51
2022-12-09T08:19:46.884Z,4.53
2022-12-09T08:20:50.954Z,4.55
2022-12-09T08:21:54.993Z,4.56
2022-12-09T08:22:59.190Z,4.61
2022-12-09T08:24:06.043Z,4.64
2022-12-09T08:25:11.298Z,4.66
2022-12-09T08:26:19.214Z,4.72
2022-12-09T08:27:23.271Z,4.73
2022-12-09T08:28:27.667Z,4.75
2022-12-09T08:29:31.374Z,4.78
2022-12-09T08:30:37.658Z,4.81
2022-12-09T08:31:44.256Z,4.81
2022-12-09T08:32:48.553Z,4.84
2022-12-09T08:33:53.835Z,4.86
2022-12-09T08:34:57.688Z,4.88
2022-12-09T08:36:04.588Z,4.90
2022-12-09T08:37:08.671Z,4.93
2022-12-09T08:38:13.082Z,4.94
2022-12-09T08:39:16.927Z,4.98
2022-12-09T08:40:20.451Z,4.99
2022-12-09T08:41:38.490Z,4.99
2022-12-09T08:42:43.112Z,4.99
2022-12-09T08:43:48.374Z,5.01
2022-12-09T08:44:57.131Z,5.03
2022-12-09T08:46:08.697Z,5.03
2022-12-09T08:47:12.478Z,5.07
2022-12-09T08:48:16.780Z,5.08
2022-12-09T08:49:23.418Z,5.12
2022-12-09T08:50:27.395Z,5.16
2022-12-09T08:51:32.494Z,5.19
2022-12-09T08:52:40.901Z,5.23
2022-12-09T08:53:48.905Z,5.23
2022-12-09T08:54:53.010Z,5.24
2022-12-09T08:55:57.097Z,5.27
2022-12-09T08:57:04.589Z,5.31
2022-12-09T08:58:08.496Z,5.36
2022-12-09T08:59:12.421Z,5.37
2022-12-09T09:00:17.510Z,5.40
2022-12-09T09:01:37.403Z,5.41
2022-12-09T09:02:41.443Z,5.45
2022-12-09T09:03:47.063Z,5.49
2022-12-09T09:04:51.021Z,5.51
2022-12-09T09:06:08.702Z,5.55
2022-12-09T09:07:14.390Z,5.60
2022-12-09T09:08:20.465Z,5.63
2022-12-09T09:09:27.164Z,5.69
2022-12-09T09:10:31.221Z,5.73
2022-12-09T09:11:35.734Z,5.76
2022-12-09T09:12:43.495Z,5.77
2022-12-09T09:13:51.755Z,5.81
2022-12-09T09:14:55.568Z,5.79
2022-12-09T09:15:59.359Z,5.86
2022-12-09T09:17:03.534Z,5.90
2022-12-09T09:18:07.742Z,5.87
2022-12-09T09:19:29.601Z,5.89
2022-12-09T09:20:33.628Z,5.91
2022-12-09T09:21:37.384Z,5.97
2022-12-09T09:22:41.697Z,6.01
2022-12-09T09:23:46.125Z,6.05
2022-12-09T09:24:51.245Z,6.10
2022-12-09T09:25:54.906Z,6.17
2022-12-09T09:26:58.875Z,6.20
2022-12-09T09:28:02.957Z,6.27
2022-12-09T09:29:08.587Z,6.30
2022-12-09T09:30:12.949Z,6.35
2022-12-09T09:31:21.212Z,6.41
2022-12-09T09:32:24.866Z,6.44
2022-12-09T09:33:29.940Z,6.49
2022-12-09T09:34:33.773Z,6.49
2022-12-09T09:35:37.947Z,6.57
2022-12-09T09:36:42.382Z,6.55
2022-12-09T09:37:46.489Z,6.62
2022-12-09T09:38:57.620Z,6.64
2022-12-09T09:40:02.603Z,6.67
2022-12-09T09:41:48.751Z,6.72
2022-12-09T09:42:56.833Z,6.77
2022-12-09T09:44:02.028Z,6.82
2022-12-09T09:45:15.226Z,6.78
2022-12-09T09:46:44.983Z,6.79
2022-12-09T09:47:56.730Z,6.77
2022-12-09T09:49:02.553Z,6.77
2022-12-09T09:50:27.731Z,6.78
2022-12-09T09:51:35.764Z,6.81
2022-12-09T09:52:42.820Z,6.76
2022-12-09T09:53:53.437Z,6.80
2022-12-09T09:54:58.686Z,6.79
2022-12-09T09:56:35.318Z,6.81
2022-12-09T09:58:00.261Z,6.82
2022-12-09T09:59:42.016Z,6.86
2022-12-09T10:01:08.538Z,6.90
2022-12-09T10:02:12.674Z,6.90
2022-12-09T10:03:48.743Z,6.90
2022-12-09T10:05:19.735Z,6.87
2022-12-09T10:06:50.899Z,6.90
2022-12-09T10:08:32.798Z,6.86
2022-12-09T10:10:15.683Z,6.85
2022-12-09T10:11:49.560Z,6.81
2022-12-09T10:13:08.224Z,6.78
2022-12-09T10:14:28.797Z,6.79
2022-12-09T10:16:06.392Z,6.82
2022-12-09T10:17:48.976Z,6.79
2022-12-09T10:19:20.681Z,6.64
2022-12-09T10:20:30.639Z,6.69
2022-12-09T10:21:42.627Z,6.75
2022-12-09T10:22:56.871Z,6.74
2022-12-09T10:24:48.488Z,6.69
2022-12-09T10:26:00.370Z,6.65
2022-12-09T10:27:35.099Z,6.55
2022-12-09T10:28:48.417Z,6.67
2022-12-09T10:30:03.603Z,6.75
2022-12-09T10:31:10.448Z,6.80
2022-12-09T10:32:20.663Z,6.87
2022-12-09T10:33:37.232Z,6.88
2022-12-09T10:34:44.471Z,6.94
2022-12-09T10:35:49.566Z,6.93
2022-12-09T10:36:53.802Z,6.94
2022-12-09T10:38:11.815Z,6.93
2022-12-09T10:39:22.020Z,6.95
2022-12-09T10:40:46.977Z,6.96
2022-12-09T10:42:18.161Z,6.96
2022-12-09T10:43:39.534Z,6.88
2022-12-09T10:44:43.907Z,6.86
2022-12-09T10:47:29.501Z,6.90
2022-12-09T10:48:49.423Z,6.95
2022-12-09T10:49:56.166Z,6.98
2022-12-09T10:51:17.639Z,6.98
2022-12-09T10:52:31.713Z,7.04
2022-12-09T10:53:36.162Z,7.07
2022-12-09T10:54:44.878Z,7.12
2022-12-09T10:55:54.784Z,7.16
2022-12-09T10:57:13.846Z,7.21
2022-12-09T10:58:31.810Z,7.21
2022-12-09T10:59:36.954Z,7.21
2022-12-09T11:00:57.674Z,7.27
2022-12-09T11:02:09.137Z,7.26
2022-12-09T11:03:31.558Z,7.30
2022-12-09T11:04:44.172Z,7.31
2022-12-09T11:06:03.257Z,7.26
2022-12-09T11:07:13.262Z,7.32
2022-12-09T11:08:23.156Z,7.36
2022-12-09T11:09:38.679Z,7.38
2022-12-09T11:10:51.207Z,7.41
2022-12-09T11:11:55.086Z,7.44
2022-12-09T11:13:08.990Z,7.50
2022-12-09T11:14:40.601Z,7.53
2022-12-09T11:15:54.540Z,7.52
2022-12-09T11:17:18.678Z,7.50
2022-12-09T11:18:47.134Z,7.47
2022-12-09T11:20:22.508Z,7.49
2022-12-09T11:21:37.878Z,7.48
2022-12-09T11:22:45.037Z,7.47
2022-12-09T11:24:02.511Z,7.42
2022-12-09T11:25:13.371Z,7.40
2022-12-09T11:26:35.075Z,7.41
2022-12-09T11:27:42.075Z,7.39
2022-12-09T11:28:45.992Z,7.38
2022-12-09T11:30:13.940Z,7.41
2022-12-09T11:31:30.564Z,7.39
2022-12-09T11:32:55.819Z,7.39
2022-12-09T11:34:14.413Z,7.42
2022-12-09T11:35:25.153Z,7.39
2022-12-09T11:36:44.386Z,7.42
2022-12-09T11:37:48.596Z,7.40
2022-12-09T11:39:09.674Z,7.43
2022-12-09T11:40:19.247Z,7.42
2022-12-09T11:41:44.993Z,7.41
2022-12-09T11:42:58.021Z,7.47
2022-12-09T11:44:02.717Z,7.47
2022-12-09T11:45:31.804Z,7.52
2022-12-09T11:46:36.943Z,7.50
2022-12-09T11:48:23.008Z,7.53
2022-12-09T11:49:17.296Z,7.47
2022-12-09T11:50:25.509Z,7.50
2022-12-09T11:52:18.944Z,7.51
2022-12-09T11:53:32.089Z,7.49
2022-12-09T11:54:58.757Z,7.49
2022-12-09T11:56:27.918Z,7.49
2022-12-09T11:57:43.452Z,7.49
2022-12-09T11:59:14.668Z,7.50
2022-12-09T12:00:21.075Z,7.51
2022-12-09T12:01:46.536Z,7.50
2022-12-09T12:03:20.848Z,7.43
2022-12-09T12:04:35.540Z,7.44
2022-12-09T12:05:47.913Z,7.44
2022-12-09T12:07:03.646Z,7.43
2022-12-09T12:08:43.831Z,7.42
2022-12-09T12:09:56.172Z,7.39
2022-12-09T12:11:14.903Z,7.39
2022-12-09T12:12:43.698Z,7.35
2022-12-09T12:13:49.482Z,7.34
2022-12-09T12:14:56.608Z,7.33
2022-12-09T12:16:13.911Z,7.34
2022-12-09T12:17:24.949Z,7.34
2022-12-09T12:18:36.403Z,7.33
2022-12-09T12:19:43.720Z,7.33
2022-12-09T12:21:17.167Z,7.31
2022-12-09T12:22:51.607Z,7.31
2022-12-09T12:24:28.573Z,7.30
2022-12-09T12:25:53.182Z,7.28
2022-12-09T12:27:15.123Z,7.27
2022-12-09T12:28:28.865Z,7.27
2022-12-09T12:29:48.604Z,7.26
2022-12-09T12:31:32.072Z,7.24
2022-12-09T12:34:54.679Z,7.17
2022-12-09T12:36:22.897Z,7.18
2022-12-09T12:38:03.275Z,7.17
2022-12-09T12:39:45.662Z,7.14
2022-12-09T12:41:26.243Z,7.14
2022-12-09T12:43:06.837Z,7.09
2022-12-09T12:44:47.538Z,7.11
2022-12-09T12:46:20.019Z,7.12
2022-12-09T12:47:45.239Z,7.11
2022-12-09T12:49:20.586Z,7.11
2022-12-09T12:51:24.944Z,7.03
2022-12-09T12:52:57.788Z,7.03
2022-12-09T12:54:48.961Z,7.00
2022-12-09T12:56:00.247Z,7.01
2022-12-09T12:57:22.348Z,6.99
2022-12-09T12:58:46.966Z,7.00
2022-12-09T13:00:24.557Z,6.96
2022-12-09T13:02:00.511Z,6.94
2022-12-09T13:03:26.209Z,6.93
2022-12-09T13:04:46.404Z,6.93
2022-12-09T13:05:54.437Z,6.89
2022-12-09T13:07:12.116Z,6.93
2022-12-09T13:08:35.598Z,6.90
2022-12-09T13:09:58.170Z,6.86
2022-12-09T13:11:22.748Z,6.87
2022-12-09T13:12:54.798Z,6.77
2022-12-09T13:14:06.587Z,6.74
2022-12-09T13:15:19.335Z,6.78
2022-12-09T13:16:39.589Z,6.79
2022-12-09T13:17:46.894Z,6.79
2022-12-09T13:18:50.848Z,6.79
2022-12-09T13:20:02.238Z,6.76
2022-12-09T13:21:07.603Z,6.76
2022-12-09T13:22:27.717Z,6.76
2022-12-09T13:23:57.348Z,6.65
2022-12-09T13:25:33.221Z,6.59
2022-12-09T13:27:26.952Z,6.57
2022-12-09T13:29:13.131Z,6.57
2022-12-09T13:30:27.305Z,6.60
2022-12-09T13:31:35.267Z,6.54
2022-12-09T13:33:12.854Z,6.58
2022-12-09T13:34:40.823Z,6.56
2022-12-09T13:36:15.149Z,6.58
2022-12-09T13:37:45.191Z,6.60
2022-12-09T13:38:49.156Z,6.62
2022-12-09T13:39:58.497Z,6.65
2022-12-09T13:41:30.725Z,6.61
2022-12-09T13:42:53.601Z,6.58
2022-12-09T13:44:11.727Z,6.52
2022-12-09T13:45:36.847Z,6.49
2022-12-09T13:46:47.644Z,6.45
2022-12-09T13:47:56.659Z,6.45
2022-12-09T13:49:11.945Z,6.46
2022-12-09T13:50:32.375Z,6.49
2022-12-09T13:51:48.958Z,6.45
2022-12-09T13:52:57.860Z,6.49
2022-12-09T13:54:04.570Z,6.49
2022-12-09T13:55:54.069Z,6.49
2022-12-09T13:57:39.891Z,6.47
2022-12-09T13:59:21.378Z,6.49
2022-12-09T14:00:25.218Z,6.43
2022-12-09T14:01:42.115Z,6.45
2022-12-09T14:03:12.384Z,6.43
2022-12-09T14:04:30.426Z,6.43
2022-12-09T14:05:37.295Z,6.40
2022-12-09T14:06:46.359Z,6.45
2022-12-09T14:08:07.256Z,6.45
2022-12-09T14:09:56.357Z,6.40
2022-12-09T14:11:52.799Z,6.39
2022-12-09T14:12:56.069Z,6.38
2022-12-09T14:14:24.957Z,6.34
2022-12-09T14:15:28.642Z,6.35
2022-12-09T14:16:35.046Z,6.40
2022-12-09T14:17:38.977Z,6.40
2022-12-09T14:18:43.520Z,6.41
2022-12-09T14:20:39.098Z,6.38
2022-12-09T14:21:42.686Z,6.36
2022-12-09T14:23:12.637Z,6.38
2022-12-09T14:24:16.901Z,6.38
2022-12-09T14:25:26.572Z,6.36
2022-12-09T14:26:59.272Z,6.39
2022-12-09T14:28:24.375Z,6.41
2022-12-09T14:29:50.124Z,6.34
2022-12-09T14:31:04.741Z,6.35
2022-12-09T14:32:42.250Z,6.34
2022-12-09T14:33:47.538Z,6.28
2022-12-09T14:35:11.429Z,6.17
2022-12-09T14:36:14.856Z,6.18
2022-12-09T14:37:53.384Z,6.14
2022-12-09T14:39:27.493Z,6.10
2022-12-09T14:41:36.616Z,6.12
2022-12-09T14:42:53.354Z,6.09
2022-12-09T14:44:27.070Z,5.97
2022-12-09T14:46:02.009Z,5.91
2022-12-09T14:47:31.339Z,5.91
2022-12-09T14:48:41.070Z,5.93
2022-12-09T14:49:49.077Z,5.87
2022-12-09T14:51:21.769Z,5.85
2022-12-09T14:52:33.131Z,5.86
2022-12-09T14:53:38.464Z,5.79
2022-12-09T14:54:48.508Z,5.82
2022-12-09T14:55:52.476Z,5.78
2022-12-09T14:57:00.964Z,5.76
2022-12-09T14:58:05.603Z,5.67
2022-12-09T14:59:18.390Z,5.57
2022-12-09T15:00:41.807Z,5.56
2022-12-09T15:02:00.106Z,5.56
2022-12-09T15:03:33.349Z,5.52
2022-12-09T15:04:47.574Z,5.45
2022-12-09T15:06:02.931Z,5.38
2022-12-09T15:07:08.307Z,5.36
2022-12-09T15:08:35.853Z,5.25
2022-12-09T15:10:02.471Z,5.29
2022-12-09T15:11:20.302Z,5.19
2022-12-09T15:12:45.323Z,5.13
2022-12-09T15:13:53.977Z,5.10
2022-12-09T15:15:04.005Z,5.09
2022-12-09T15:16:12.375Z,5.03
2022-12-09T15:17:33.090Z,5.00
2022-12-09T15:18:40.616Z,4.95
2022-12-09T15:20:00.799Z,4.96
2022-12-09T15:21:08.502Z,4.93
2022-12-09T15:22:24.568Z,4.91
2022-12-09T15:23:34.807Z,4.89
2022-12-09T15:24:50.052Z,4.93
2022-12-09T15:25:57.715Z,4.85
2022-12-09T15:27:03.956Z,4.87
2022-12-09T15:28:25.889Z,4.84
2022-12-09T15:29:33.914Z,4.84
2022-12-09T15:30:38.424Z,4.85
2022-12-09T15:31:50.045Z,4.88
2022-12-09T15:32:53.481Z,4.88
2022-12-09T15:34:14.484Z,4.85
2022-12-09T15:35:26.578Z,4.81
2022-12-09T15:36:40.298Z,4.80
2022-12-09T15:37:45.542Z,4.79
2022-12-09T15:39:20.552Z,4.66
2022-12-09T15:40:29.543Z,4.68
2022-12-09T15:42:09.636Z,4.72
2022-12-09T15:43:15.835Z,4.64
2022-12-09T15:44:24.110Z,4.63
2022-12-09T15:45:37.339Z,4.67
2022-12-09T15:46:45.357Z,4.61
2022-12-09T15:48:18.169Z,4.61
2022-12-09T15:49:29.486Z,4.63
2022-12-09T15:50:49.869Z,4.64
2022-12-09T15:51:56.563Z,4.66
2022-12-09T15:53:34.551Z,4.64
2022-12-09T15:54:46.017Z,4.52
2022-12-09T15:56:11.875Z,4.57
2022-12-09T15:57:22.649Z,4.55
2022-12-09T15:58:39.682Z,4.57
2022-12-09T15:59:55.358Z,4.56
2022-12-09T16:00:59.854Z,4.57
2022-12-09T16:02:04.617Z,4.54
2022-12-09T16:03:09.526Z,4.53
2022-12-09T16:04:21.457Z,4.55
2022-12-09T16:05:41.857Z,4.56
2022-12-09T16:06:50.918Z,4.50
2022-12-09T16:07:59.569Z,4.51
2022-12-09T16:09:25.070Z,4.51
2022-12-09T16:10:58.228Z,4.47
2022-12-09T16:12:24.077Z,4.43
2022-12-09T16:13:35.763Z,4.37
2022-12-09T16:14:45.578Z,4.29
2022-12-09T16:15:58.640Z,4.30
2022-12-09T16:17:04.397Z,4.30
2022-12-09T16:18:34.704Z,4.26
2022-12-09T16:19:38.596Z,4.25
2022-12-09T16:20:45.671Z,4.14
2022-12-09T16:21:54.939Z,4.14
2022-12-09T16:23:01.511Z,4.12
2022-12-09T16:24:13.915Z,4.15